Flight Track Log - Related Links

Times and Time Zones

All times are in EDT time to prevent confusion due to time zone crossing. See the FLG3326 flight status page for this flight to view local times or setup timezone preferences in your user account.

Time Position Orientation Groundspeed Altitude Reporting Facility
EDT Latitude Longitude Course Direction KTS MPH feet Rate Location/Type
Wed 11:36:55 AM 38.7833 -90.4333 84° East 175 201 2,400  Level Gateway (St. Louis) TRACON
Wed 11:37:56 AM 38.8500 -90.4500 349° North 231 266 4,000 1,750 Climbing Gateway (St. Louis) TRACON
Wed 11:39:00 AM 38.7570 -89.9229 87° East  Level FlightAware Approximate
Wed 11:40:00 AM 38.7627 -89.7747 87° East  Level FlightAware Approximate
Wed 11:40:07 AM 38.8783 -90.2536 79° East 300 345 8,000  Level Kansas City Center
Wed 11:41:00 AM 38.7723 -89.6272 80° East  Level FlightAware Approximate
Wed 11:41:11 AM 38.8619 -90.1169 99° East 319 367 10,900  Level Kansas City Center
Wed 11:42:00 AM 38.7887 -89.4811 84° East  Level FlightAware Approximate
Wed 11:42:12 AM 38.8464 -90.0022 100° East 324 373 13,400  Level Kansas City Center
Wed 11:43:15 AM 38.8306 -89.8806 99° East 337 388 15,400 2,032 Climbing Kansas City Center
Wed 11:44:16 AM 38.8142 -89.7553 99° East 350 403 17,600 1,500 Climbing Kansas City Center
Wed 11:45:19 AM 38.7933 -89.6061 100° East 380 437 18,500 1,296 Climbing Kansas City Center
Wed 11:46:21 AM 38.7989 -89.4564 87° East 419 482 20,300 1,820 Climbing Kansas City Center
Wed 11:47:21 AM 38.8200 -89.2942 80° East 428 493 22,200 1,597 Climbing Kansas City Center
Wed 11:48:25 AM 38.8389 -89.1394 81° East 439 505 23,600 1,403 Climbing Kansas City Center
Wed 11:49:25 AM 38.8586 -88.9797 81° East 453 521 25,100 1,306 Climbing Kansas City Center
Wed 11:50:29 AM 38.8828 -88.8178 79° East 461 531 26,300 1,152 Climbing Kansas City Center
Wed 11:51:30 AM 38.9036 -88.6522 81° East 469 540 27,500 1,210 Climbing Kansas City Center
Wed 11:52:33 AM 38.9269 -88.4653 81° East 476 548 28,800 1,403 Climbing Kansas City Center
Wed 11:53:34 AM 38.9725 -88.3033 70° East 476 548 30,400 1,672 Climbing Kansas City Center
Wed 11:54:35 AM 39.0172 -88.1456 70° East 472 543 32,200 1,858 Climbing Kansas City Center
Wed 11:55:27 AM 39.0486 -88.0264 71° East 463 533 33,900 1,684 Climbing Indianapolis Center
Wed 11:56:29 AM 39.1103 -87.8586 65° Northeast 436 502 35,400 1,355 Climbing Indianapolis Center
Wed 11:57:31 AM 39.1647 -87.7242 62° Northeast 423 487 36,700 774 Climbing Indianapolis Center
Wed 11:58:33 AM 39.2175 -87.5900 63° Northeast 421 484 37,000 145 Climbing Indianapolis Center
Wed 11:59:35 AM 39.2708 -87.4464 64° Northeast 439 505 37,000  Level Indianapolis Center
Wed 12:00:36 PM 39.3267 -87.2994 64° Northeast 453 521 37,000  Level Indianapolis Center
Wed 12:01:38 PM 39.3856 -87.1553 62° Northeast 451 519 37,000  Level Indianapolis Center
Wed 12:02:40 PM 39.4414 -87.0150 63° Northeast 440 506 37,000  Level Indianapolis Center
Wed 12:03:42 PM 39.4969 -86.8761 63° Northeast 434 499 37,000  Level Indianapolis Center
Wed 12:04:44 PM 39.5511 -86.7350 63° Northeast 434 499 37,000  Level Indianapolis Center
Wed 12:05:46 PM 39.6181 -86.5658 63° Northeast 438 504 37,000  Level Indianapolis Center
Wed 12:06:48 PM 39.6747 -86.4222 63° Northeast 444 511 37,000  Level Indianapolis Center
Wed 12:07:49 PM 39.7311 -86.2775 63° Northeast 447 514 37,000  Level Indianapolis Center
Wed 12:08:51 PM 39.7886 -86.1322 63° Northeast 450 518 37,000  Level Indianapolis Center
Wed 12:09:53 PM 39.8439 -85.9839 64° Northeast 453 521 37,000  Level Indianapolis Center
Wed 12:10:55 PM 39.9011 -85.8367 63° Northeast 457 526 37,000  Level Indianapolis Center
Wed 12:11:57 PM 39.9581 -85.6850 64° Northeast 460 529 37,000  Level Indianapolis Center
Wed 12:12:58 PM 40.0258 -85.5094 63° Northeast 461 531 37,000  Level Indianapolis Center
Wed 12:14:00 PM 40.0817 -85.3575 64° Northeast 458 527 37,000  Level Indianapolis Center
Wed 12:15:02 PM 40.1392 -85.2056 64° Northeast 460 529 37,000  Level Indianapolis Center
Wed 12:16:04 PM 40.1961 -85.0531 64° Northeast 462 532 37,000  Level Indianapolis Center
Wed 12:17:06 PM 40.2544 -84.9022 63° Northeast 460 529 37,000  Level Indianapolis Center
Wed 12:18:08 PM 40.3092 -84.7492 65° Northeast 460 529 37,000  Level Indianapolis Center
Wed 12:19:09 PM 40.3647 -84.5958 65° Northeast 462 532 37,000  Level Indianapolis Center
Wed 12:20:11 PM 40.4219 -84.4419 64° Northeast 463 533 37,000  Level Indianapolis Center
Wed 12:21:13 PM 40.4781 -84.2889 64° Northeast 461 531 37,000  Level Indianapolis Center
Wed 12:22:15 PM 40.5328 -84.1342 65° Northeast 462 532 37,000  Level Indianapolis Center
Wed 12:23:16 PM 40.5981 -83.9539 64° Northeast 463 533 37,000  Level Indianapolis Center
Wed 12:24:18 PM 40.6533 -83.8014 64° Northeast 459 528 37,000  Level Indianapolis Center
Wed 12:25:20 PM 40.7075 -83.6469 65° Northeast 457 526 37,000  Level Indianapolis Center
Wed 12:26:21 PM 40.7611 -83.4942 65° Northeast 454 522 37,000  Level Indianapolis Center
Wed 12:27:23 PM 40.8183 -83.3333 65° Northeast 454 522 37,000  Level Indianapolis Center
Wed 12:28:25 PM 40.8711 -83.1803 65° Northeast 452 520 37,000  Level Indianapolis Center
Wed 12:28:43 PM 40.8869 -83.1319 67° East 448 516 37,000  Level Cleveland Center
Wed 12:29:43 PM 40.9403 -82.9800 65° Northeast 443 510 37,000  Level Cleveland Center
Wed 12:30:43 PM 40.9869 -82.8469 65° Northeast 443 510 37,000  Level Cleveland Center
Wed 12:31:43 PM 41.0378 -82.6944 66° East 448 516 37,000  Level Cleveland Center
Wed 12:32:43 PM 41.0906 -82.5419 65° Northeast 448 516 37,000  Level Cleveland Center
Wed 12:33:43 PM 41.1411 -82.3919 66° East 448 516 37,000  Level Cleveland Center
Wed 12:34:43 PM 41.1933 -82.2442 65° Northeast 442 509 37,000  Level Cleveland Center
Wed 12:35:43 PM 41.2433 -82.0908 67° East 442 509 37,000  Level Cleveland Center
Wed 12:36:43 PM 41.2997 -81.9264 65° Northeast 437 503 37,000  Level Cleveland Center
Wed 12:37:43 PM 41.3428 -81.7861 68° East 444 511 37,000  Level Cleveland Center
Wed 12:38:43 PM 41.3964 -81.6350 65° Northeast 444 511 37,000  Level Cleveland Center
Wed 12:39:43 PM 41.4478 -81.4806 66° East 450 518 37,000  Level Cleveland Center
Wed 12:40:43 PM 41.4969 -81.3317 66° East 450 518 37,000  Level Cleveland Center
Wed 12:41:43 PM 41.5456 -81.1769 67° East 450 518 37,000  Level Cleveland Center
Wed 12:42:43 PM 41.5964 -81.0247 66° East 450 518 37,000  Level Cleveland Center
Wed 12:43:43 PM 41.6469 -80.8667 67° East 450 518 37,000  Level Cleveland Center
Wed 12:44:43 PM 41.7014 -80.6972 67° East 450 518 37,000  Level Cleveland Center
Wed 12:45:43 PM 41.7286 -80.5247 78° East 464 534 37,000  Level Cleveland Center
Wed 12:46:43 PM 41.7261 -80.3356 91° East 488 562 37,000  Level Cleveland Center
Wed 12:47:43 PM 41.7278 -80.1519 89° East 494 568 37,000  Level Cleveland Center
Wed 12:48:43 PM 41.7269 -79.9628 90° East 501 577 37,000  Level Cleveland Center
Wed 12:49:43 PM 41.7236 -79.7736 91° East 501 577 37,000  Level Cleveland Center
Wed 12:50:43 PM 41.7244 -79.6094 90° East 496 571 37,000  Level Cleveland Center
Wed 12:51:43 PM 41.7228 -79.4203 91° East 496 571 37,000  Level Cleveland Center
Wed 12:52:43 PM 41.7206 -79.2283 91° East 496 571 37,000  Level Cleveland Center
Wed 12:53:43 PM 41.7183 -79.0419 91° East 496 571 37,000  Level Cleveland Center
Wed 12:54:43 PM 41.7156 -78.8528 91° East 496 571 37,000  Level Cleveland Center
Wed 12:55:43 PM 41.7125 -78.6611 91° East 501 577 37,000  Level Cleveland Center
Wed 12:56:43 PM 41.7111 -78.4692 90° East 506 582 37,000  Level Cleveland Center
Wed 12:57:43 PM 41.7075 -78.2772 91° East 506 582 37,000  Level Cleveland Center
Wed 12:59:30 PM 41.6994 -77.9278 92° East 532 612 37,000  Level New York Center
Wed 01:00:30 PM 41.6939 -77.7411 92° East 497 572 37,000  Level New York Center
Wed 01:01:32 PM 41.6906 -77.5489 91° East 510 587 37,000  Level New York Center
Wed 01:02:29 PM 41.6844 -77.3567 92° East 510 587 37,000  Level New York Center
Wed 01:03:31 PM 41.6761 -77.1669 93° East 510 587 37,000  Level New York Center
Wed 01:04:31 PM 41.6319 -76.9794 107° East 515 593 37,000  Level New York Center
Wed 01:05:29 PM 41.5828 -76.8000 110° East 521 600 37,000  Level New York Center
Wed 01:06:30 PM 41.5336 -76.6183 110° East 527 606 37,000 -836 Level New York Center
Wed 01:07:31 PM 41.4842 -76.4367 110° East 527 606 35,300 -1,785 Descending New York Center
Wed 01:08:31 PM 41.4375 -76.2750 111° Southeast 522 601 33,400 -1,900 Descending New York Center
Wed 01:09:31 PM 41.3878 -76.0914 110° East 522 601 31,500 -1,983 Descending New York Center
Wed 01:10:29 PM 41.3408 -75.9244 110° East 505 581 29,500 -2,017 Descending New York Center
Wed 01:11:30 PM 41.2917 -75.7578 111° Southeast 490 564 27,500 -1,934 Descending New York Center
Wed 01:12:30 PM 41.2422 -75.5942 112° Southeast 482 555 25,600 -1,815 Descending New York Center
Wed 01:13:29 PM 41.1881 -75.4386 115° Southeast 482 555 23,900 -1,311 Descending New York Center
Wed 01:14:29 PM 41.1339 -75.2778 114° Southeast 471 542 23,000 -446 Descending New York Center
Wed 01:15:30 PM 41.0814 -75.1231 114° Southeast 465 535 23,000  Level New York Center
Wed 01:16:30 PM 41.0233 -74.9433 113° Southeast 465 535 23,000  Level New York Center
Wed 01:17:31 PM 40.9850 -74.7842 108° East 465 535 23,000 -400 Level New York Center
Wed 01:18:30 PM 40.9678 -74.6156 98° East 465 535 22,200 -900 Descending New York Center
Wed 01:19:31 PM 40.9500 -74.4553 98° East 448 516 21,200 -1,029 Descending New York Center
Wed 01:20:15 PM 40.9333 -74.3333 100° East 443 510 20,400 -1,041 Descending New York TRACON
Wed 01:21:09 PM 40.9167 -74.2000 99° East 422 486 19,500 -737 Descending New York TRACON
Wed 01:22:09 PM 40.8333 -74.1167 143° Southeast 387 445 19,000 -800 Descending New York TRACON
Wed 01:23:09 PM 40.7333 -74.0667 159° South 379 436 17,900 -1,100 Descending New York TRACON
Wed 01:24:09 PM 40.6500 -74.0167 156° South 371 427 16,800 -1,550 Descending New York TRACON
Wed 01:25:09 PM 40.5500 -73.9667 159° South 373 429 14,800 -2,250 Descending New York TRACON
Wed 01:26:09 PM 40.4667 -73.9167 155° Southeast 347 399 12,300 -2,600 Descending New York TRACON
Wed 01:27:09 PM 40.3667 -73.8833 166° South 328 377 9,600 -2,341 Descending New York TRACON
Wed 01:27:31 PM 40.3478 -73.8756 163° South 341 392 9,100 -2,300 Descending New York Center
Wed 01:28:09 PM 40.3000 -73.8167 137° Southeast 330 380 7,300 -2,135 Descending New York TRACON
Wed 01:29:15 PM 40.3500 -73.7333 52° Northeast 270 311 5,400 -1,700 Descending New York TRACON
Wed 01:30:09 PM 40.4000 -73.6833 37° Northeast 261 300 3,900 -1,789 Descending New York TRACON
Wed 01:31:09 PM 40.4667 -73.6333 30° Northeast 252 290 2,000 -950 Descending New York TRACON
Wed 01:32:09 PM 40.5167 -73.6500 346° North 206 237 2,000  Level New York TRACON

Login

Don't have an account? Register now (free) for customized features, flight alerts, and more!